CheckWX is a tool to help pilots better visualize weather data.  It is not intended as a substitute for an official pre-flight weather briefing.

08:15:31 UTC

KRDR TAF
Grand Forks AFB Airport
Grand Forks, North Dakota, USA
TAF AMD KRDR 280712Z 2807/2908 13006KT 9000 -SN BKN018 OVC030 620189 QNH3008INS BECMG 2808/2809 12006KT 9999 NSW SCT018 OVC030 620305 QNH3009INS BECMG 2815/2816 22006KT 9999 BKN009 OVC015 620094 QNH3000INS BECMG 2905/2906 18006KT 8000 BR OVC002 620102 QNH2993INS TXM04/2820Z TNM17/2811Z

Feb-28@
07:00 UTC

Feb-28 @ 07:00 UTC

Feb-28@
08:00 UTC

Feb-28 @ 08:00 UTC

TAF AMD KRDR 280712Z 2807/2908 13006KT 9000 -SN BKN018 OVC030 620189 QNH3008INS

Expired

Wind
  • 130° at 6 KTS
Conditions
Light Snow
Cloud Levels
  • Broken at 1,800' AGL
  • Overcast at 3,000' AGL
Icing
Light icing in cloud expected at 1,800' AGL extending to 10,800' AGL

Feb-28@
08:00 UTC

Feb-28 @ 08:00 UTC

Feb-28@
15:00 UTC

Feb-28 @ 15:00 UTC

BECMG 2808/2809 12006KT 9999 NSW SCT018 OVC030 620305 QNH3009INS

Becoming

Becoming Conditions expected by Fri, Feb 28, 2020 @ 09:00 UTC

Wind
  • 120° at 6 KTS
Conditions
No significant weather
Cloud Levels
  • Scattered at 1,800' AGL
  • Overcast at 3,000' AGL
Icing
Light icing in cloud expected at 3,000' AGL extending to 8,000' AGL

Feb-28@
15:00 UTC

Feb-28 @ 15:00 UTC

Feb-29@
05:00 UTC

Feb-29 @ 05:00 UTC

BECMG 2815/2816 22006KT 9999 BKN009 OVC015 620094 QNH3000INS

Becoming

Becoming Conditions expected by Fri, Feb 28, 2020 @ 16:00 UTC

Wind
  • 220° at 6 KTS
Conditions
No significant weather
Cloud Levels
  • Broken at 900' AGL
  • Overcast at 1,500' AGL
Icing
Light icing in cloud expected at 900' AGL extending to 4,900' AGL

Feb-29@
05:00 UTC

Feb-29 @ 05:00 UTC

Feb-29@
08:00 UTC

Feb-29 @ 08:00 UTC

BECMG 2905/2906 18006KT 8000 BR OVC002 620102 QNH2993INS TXM04/2820Z TNM17/2811Z

Becoming

Becoming Conditions expected by Sat, Feb 29, 2020 @ 06:00 UTC

Wind
  • 180° at 6 KTS
Conditions
Mist
Cloud Levels
  • Overcast at 200' AGL
Icing
Light icing in cloud expected at 1,000' AGL extending to 3,000' AGL